Time;durP1;ratioP1;P1;durP2;ratioP2;P2;SDS_P1;SDS_P2;PMS_P1;PMS_P2;Temp;Humidity;BMP_temperature;BMP_pressure;BME280_temperature;BME280_humidity;BME280_pressure;Samples;Min_cycle;Max_cycle;Signal;HPM_P1;HPM_P2
2022/07/22 00:00:17;;;;;;;;;;;;;;;30.68;42.95;98817.75;2094895;28;19932;-76
2022/07/22 00:01:19;;;;;;;;;;;;;;;30.68;42.88;98813.06;2097824;28;19932;-76
2022/07/22 00:02:20;;;;;;;;;;;;;;;30.69;42.75;98809.22;2097806;28;19946;-76
2022/07/22 00:03:21;;;;;;;;;;;;;;;30.68;43.37;98810.34;2095222;28;20030;-74
2022/07/22 00:04:22;;;;;;;;;;;;;;;30.67;43.37;98810.59;2098117;28;19928;-75
2022/07/22 00:05:23;;;;;;;;;;;;;;;30.67;43.02;98799.66;2095665;28;19924;-74
2022/07/22 00:06:24;;;;;;;;;;;;;;;30.67;43.20;98805.13;2093284;28;19955;-76
2022/07/22 00:07:25;;;;;;;;;;;;;;;30.66;43.11;98798.84;2093837;28;19928;-76
2022/07/22 00:08:26;;;;;;;;;;;;;;;30.67;43.26;98802.38;2096778;28;19971;-76
2022/07/22 00:09:27;;;;;;;;;;;;;;;30.66;43.25;98807.06;2099012;28;19963;-74
2022/07/22 00:10:28;;;;;;;;;;;;;;;30.66;43.24;98811.72;2097095;28;19940;-76
2022/07/22 00:11:30;;;;;;;;;;;;;;;30.66;43.25;98808.97;2097015;28;19928;-76
2022/07/22 00:12:30;;;;;;;;;;;;;;;30.65;43.25;98805.44;2097316;28;20413;-77
2022/07/22 00:13:32;;;;;;;;;;;;;;;30.65;43.30;98805.44;2098310;28;19934;-75
2022/07/22 00:14:32;;;;;;;;;;;;;;;30.65;43.30;98807.34;2099213;28;20286;-75
2022/07/22 00:15:35;;;;;;;;;;;;;;;30.66;43.24;98803.50;2098218;28;19934;-73
2022/07/22 00:16:36;;;;;;;;;;;;;;;30.66;43.27;98800.75;2096984;28;20223;-74
2022/07/22 00:17:39;;;;;;;;;;;;;;;30.66;42.92;98800.75;2098744;28;20413;-76
2022/07/22 00:18:40;;;;;;;;;;;;;;;30.65;42.90;98794.47;2096721;28;20235;-75
2022/07/22 00:19:42;;;;;;;;;;;;;;;30.66;43.11;98803.50;2098711;28;19928;-73
2022/07/22 00:20:42;;;;;;;;;;;;;;;30.65;43.28;98799.13;2099716;28;19935;-75
2022/07/22 00:21:45;;;;;;;;;;;;;;;30.65;43.36;98804.59;2098783;28;20423;-75
2022/07/22 00:22:46;;;;;;;;;;;;;;;30.64;43.42;98806.50;2097352;28;20192;-74
2022/07/22 00:23:48;;;;;;;;;;;;;;;30.64;43.06;98801.03;2094621;28;20294;-75
2022/07/22 00:24:48;;;;;;;;;;;;;;;30.66;42.75;98798.03;2085074;28;19928;-73
2022/07/22 00:25:50;;;;;;;;;;;;;;;30.66;43.00;98795.28;2093755;28;20278;-74
2022/07/22 00:26:51;;;;;;;;;;;;;;;30.65;43.04;98799.13;2096671;28;19927;-74
2022/07/22 00:27:52;;;;;;;;;;;;;;;30.64;42.90;98792.81;2097526;28;19979;-76
2022/07/22 00:28:53;;;;;;;;;;;;;;;30.64;42.96;98797.47;2098874;28;20468;-75
2022/07/22 00:29:54;;;;;;;;;;;;;;;30.63;43.05;98798.59;2098585;28;20365;-73
2022/07/22 00:30:56;;;;;;;;;;;;;;;30.62;42.93;98795.03;2094186;28;20286;-74
2022/07/22 00:31:58;;;;;;;;;;;;;;;30.63;43.30;98804.06;2100042;28;20427;-74
2022/07/22 00:32:58;;;;;;;;;;;;;;;30.62;43.37;98799.66;2087932;28;19932;-74
2022/07/22 00:34:01;;;;;;;;;;;;;;;30.62;43.07;98800.50;2093543;28;20186;-76
2022/07/22 00:35:02;;;;;;;;;;;;;;;30.62;42.86;98795.03;2096510;28;20339;-74
2022/07/22 00:36:04;;;;;;;;;;;;;;;30.62;42.73;98796.94;2098676;28;19936;-74
2022/07/22 00:37:06;;;;;;;;;;;;;;;30.63;43.01;98795.84;2097027;28;20424;-74
2022/07/22 00:38:07;;;;;;;;;;;;;;;30.62;43.12;98800.50;2095289;28;20142;-74
2022/07/22 00:39:09;;;;;;;;;;;;;;;30.64;42.83;98800.22;2094813;28;20888;-76
2022/07/22 00:40:10;;;;;;;;;;;;;;;30.62;42.88;98802.41;2099026;28;19943;-76
2022/07/22 00:41:12;;;;;;;;;;;;;;;30.62;43.14;98794.19;2094637;28;20034;-73
2022/07/22 00:42:12;;;;;;;;;;;;;;;30.63;43.31;98798.59;2099076;28;19928;-76
2022/07/22 00:43:14;;;;;;;;;;;;;;;30.62;43.14;98799.66;2097385;28;20035;-75
2022/07/22 00:44:14;;;;;;;;;;;;;;;30.61;42.87;98792.56;2099132;28;19928;-75
2022/07/22 00:45:16;;;;;;;;;;;;;;;30.62;42.74;98791.44;2099157;28;20120;-74
2022/07/22 00:46:18;;;;;;;;;;;;;;;30.62;43.09;98791.44;2098578;28;19928;-76
2022/07/22 00:47:20;;;;;;;;;;;;;;;30.61;43.37;98790.63;2098256;28;19948;-76
2022/07/22 00:48:20;;;;;;;;;;;;;;;30.60;43.64;98799.97;2099611;28;19951;-73
2022/07/22 00:49:22;;;;;;;;;;;;;;;30.62;42.93;98794.19;2099018;28;20116;-75
2022/07/22 00:50:23;;;;;;;;;;;;;;;30.61;43.20;98789.81;2096586;28;19935;-76
2022/07/22 00:51:25;;;;;;;;;;;;;;;30.60;43.27;98796.41;2099637;28;19935;-73
2022/07/22 00:52:26;;;;;;;;;;;;;;;30.61;43.46;98795.31;2095395;28;19924;-75
2022/07/22 00:53:28;;;;;;;;;;;;;;;30.61;43.46;98789.81;2097143;28;20603;-75
2022/07/22 00:54:28;;;;;;;;;;;;;;;30.61;43.53;98795.31;2098133;28;20458;-74
2022/07/22 00:55:30;;;;;;;;;;;;;;;30.63;43.28;98793.13;2097950;28;19968;-74
2022/07/22 00:56:31;;;;;;;;;;;;;;;30.61;43.45;98790.63;2097541;28;19935;-76
2022/07/22 00:57:33;;;;;;;;;;;;;;;30.62;43.10;98786.81;2098891;28;20015;-76
2022/07/22 00:58:33;;;;;;;;;;;;;;;30.64;42.99;98797.47;2095157;28;20107;-76
2022/07/22 00:59:35;;;;;;;;;;;;;;;30.63;43.27;98784.91;2099102;28;20174;-77
2022/07/22 01:00:35;;;;;;;;;;;;;;;30.63;43.31;98790.38;2095285;28;19959;-75
2022/07/22 01:01:38;;;;;;;;;;;;;;;30.63;43.21;98795.84;2098483;28;19939;-74
2022/07/22 01:02:39;;;;;;;;;;;;;;;30.61;43.38;98784.34;2097858;28;20421;-73
2022/07/22 01:03:41;;;;;;;;;;;;;;;30.62;43.28;98788.72;2098763;28;19928;-76
2022/07/22 01:04:42;;;;;;;;;;;;;;;30.62;43.27;98789.56;2095579;28;19924;-75
2022/07/22 01:05:44;;;;;;;;;;;;;;;30.62;43.43;98792.28;2098869;28;20048;-76
2022/07/22 01:06:45;;;;;;;;;;;;;;;30.63;43.07;98790.38;2098650;28;19951;-76
2022/07/22 01:07:46;;;;;;;;;;;;;;;30.62;43.55;98788.72;2097019;28;19928;-74
2022/07/22 01:08:47;;;;;;;;;;;;;;;30.60;43.50;98786.28;2096223;28;19928;-74
2022/07/22 01:09:48;;;;;;;;;;;;;;;30.61;43.03;98785.16;2094509;28;19930;-75
2022/07/22 01:10:49;;;;;;;;;;;;;;;30.60;43.29;98791.75;2098234;28;19935;-75
2022/07/22 01:11:51;;;;;;;;;;;;;;;30.61;43.17;98781.63;2098076;28;20311;-76
2022/07/22 01:12:51;;;;;;;;;;;;;;;30.60;43.32;98789.00;2099204;28;19969;-73
2022/07/22 01:13:54;;;;;;;;;;;;;;;30.60;43.58;98788.19;2098280;28;19931;-75
2022/07/22 01:14:55;;;;;;;;;;;;;;;30.60;43.14;98791.75;2097317;28;19999;-76
2022/07/22 01:15:56;;;;;;;;;;;;;;;30.60;43.10;98783.53;2096444;28;19973;-75
2022/07/22 01:16:59;;;;;;;;;;;;;;;30.60;43.32;98782.72;2097111;28;20325;-75
2022/07/22 01:18:00;;;;;;;;;;;;;;;30.60;43.23;98783.53;2096233;28;20480;-73
2022/07/22 01:19:01;;;;;;;;;;;;;;;30.60;43.50;98780.81;2096742;28;20062;-74
2022/07/22 01:20:04;;;;;;;;;;;;;;;30.59;43.40;98783.81;2098755;28;19928;-74
2022/07/22 01:21:06;;;;;;;;;;;;;;;30.60;43.16;98783.53;2098080;28;19932;-74
2022/07/22 01:22:06;;;;;;;;;;;;;;;30.60;43.64;98786.28;2099473;28;19928;-75
2022/07/22 01:23:08;;;;;;;;;;;;;;;30.59;43.38;98781.06;2093812;28;19928;-76
2022/07/22 01:24:09;;;;;;;;;;;;;;;30.60;43.18;98782.72;2096725;28;20385;-73
2022/07/22 01:25:10;;;;;;;;;;;;;;;30.60;43.29;98782.72;2098434;28;20010;-73
2022/07/22 01:26:11;;;;;;;;;;;;;;;30.59;43.34;98781.06;2098972;28;19928;-74
2022/07/22 01:27:12;;;;;;;;;;;;;;;30.58;43.29;98784.91;2097317;28;20238;-75
2022/07/22 01:28:13;;;;;;;;;;;;;;;30.58;43.34;98785.72;2096063;28;20420;-75
2022/07/22 01:29:14;;;;;;;;;;;;;;;30.59;43.38;98781.06;2097302;28;19943;-75
2022/07/22 01:30:15;;;;;;;;;;;;;;;30.59;43.50;98781.06;2099111;28;19935;-74
2022/07/22 01:31:17;;;;;;;;;;;;;;;30.56;43.29;98782.44;2098193;28;19946;-74
2022/07/22 01:32:17;;;;;;;;;;;;;;;30.56;43.30;98770.69;2098854;28;20648;-74
2022/07/22 01:33:19;;;;;;;;;;;;;;;30.58;43.39;98782.19;2097709;28;19959;-75
2022/07/22 01:34:19;;;;;;;;;;;;;;;30.56;42.98;98778.88;2098479;28;19932;-75
2022/07/22 01:35:22;;;;;;;;;;;;;;;30.59;43.16;98787.38;2097884;28;19928;-73
2022/07/22 01:36:23;;;;;;;;;;;;;;;30.56;43.18;98778.88;2097647;28;19928;-73
2022/07/22 01:37:24;;;;;;;;;;;;;;;30.55;43.10;98785.47;2097874;28;19924;-75
2022/07/22 01:38:25;;;;;;;;;;;;;;;30.55;43.01;98774.53;2098168;28;19932;-75
2022/07/22 01:39:26;;;;;;;;;;;;;;;30.55;43.44;98774.53;2096577;28;19978;-76
2022/07/22 01:40:27;;;;;;;;;;;;;;;30.55;43.01;98786.28;2098034;28;20753;-75
2022/07/22 01:41:28;;;;;;;;;;;;;;;30.54;43.40;98776.44;2098143;28;19928;-75
2022/07/22 01:42:29;;;;;;;;;;;;;;;30.54;43.21;98779.19;2098607;28;19928;-73
2022/07/22 01:43:31;;;;;;;;;;;;;;;30.53;43.36;98776.72;2098381;28;19928;-74
2022/07/22 01:44:31;;;;;;;;;;;;;;;30.55;43.42;98774.53;2096803;28;19928;-74
2022/07/22 01:45:33;;;;;;;;;;;;;;;30.55;43.16;98774.53;2097595;28;19934;-74
2022/07/22 01:46:34;;;;;;;;;;;;;;;30.54;43.14;98773.72;2098401;28;20019;-73
2022/07/22 01:47:36;;;;;;;;;;;;;;;30.55;43.05;98771.78;2098560;28;20285;-74
2022/07/22 01:48:36;;;;;;;;;;;;;;;30.55;42.97;98780.81;2098778;28;19928;-75
2022/07/22 01:49:38;;;;;;;;;;;;;;;30.55;43.11;98775.34;2098034;28;20114;-74
2022/07/22 01:50:40;;;;;;;;;;;;;;;30.54;43.29;98778.38;2097712;28;19928;-74
2022/07/22 01:51:42;;;;;;;;;;;;;;;30.54;43.21;98775.63;2098444;28;20404;-76
2022/07/22 01:52:43;;;;;;;;;;;;;;;30.55;43.21;98769.06;2097219;28;19928;-74
2022/07/22 01:53:44;;;;;;;;;;;;;;;30.54;43.33;98770.16;2093217;28;20351;-75
2022/07/22 01:54:45;;;;;;;;;;;;;;;30.54;43.29;98770.97;2097260;28;19939;-74
2022/07/22 01:55:46;;;;;;;;;;;;;;;30.53;43.06;98772.06;2097920;28;19945;-75
2022/07/22 01:56:47;;;;;;;;;;;;;;;30.54;42.92;98772.91;2096696;28;19928;-75
2022/07/22 01:57:48;;;;;;;;;;;;;;;30.54;43.19;98767.41;2095962;28;20057;-75
2022/07/22 01:58:49;;;;;;;;;;;;;;;30.53;43.53;98772.06;2097752;28;19928;-75
2022/07/22 01:59:50;;;;;;;;;;;;;;;30.53;43.55;98776.72;2097960;28;20263;-74
2022/07/22 02:00:51;;;;;;;;;;;;;;;30.53;42.94;98772.06;2097601;28;19931;-74
2022/07/22 02:01:53;;;;;;;;;;;;;;;30.54;43.12;98767.41;2097642;28;20416;-75
2022/07/22 02:02:53;;;;;;;;;;;;;;;30.53;42.93;98773.97;2098854;28;20395;-75
2022/07/22 02:03:55;;;;;;;;;;;;;;;30.54;42.90;98770.16;2097855;28;19932;-74
2022/07/22 02:04:55;;;;;;;;;;;;;;;30.53;43.71;98766.59;2096889;28;19932;-75
2022/07/22 02:05:58;;;;;;;;;;;;;;;30.52;43.04;98764.94;2098565;28;20076;-75
2022/07/22 02:06:59;;;;;;;;;;;;;;;30.53;43.46;98771.25;2095574;28;20038;-75
2022/07/22 02:08:01;;;;;;;;;;;;;;;30.50;43.59;98767.94;2096741;28;20488;-76
2022/07/22 02:09:02;;;;;;;;;;;;;;;30.50;43.42;98772.63;2094944;28;20084;-75
2022/07/22 02:10:04;;;;;;;;;;;;;;;30.51;43.40;98771.53;2097924;28;20019;-74
2022/07/22 02:11:05;;;;;;;;;;;;;;;30.50;43.07;98767.94;2097315;28;19928;-74
2022/07/22 02:12:08;;;;;;;;;;;;;;;30.50;43.49;98767.94;2098178;28;19932;-75
2022/07/22 02:13:08;;;;;;;;;;;;;;;30.50;42.94;98770.69;2097689;28;20106;-74
2022/07/22 02:14:10;;;;;;;;;;;;;;;30.53;43.04;98771.25;2098773;28;20083;-75
2022/07/22 02:15:10;;;;;;;;;;;;;;;30.52;43.17;98767.69;2097766;28;20254;-76
2022/07/22 02:16:12;;;;;;;;;;;;;;;30.52;43.43;98769.63;2097495;28;20431;-73
2022/07/22 02:17:13;;;;;;;;;;;;;;;30.55;43.22;98771.78;2096056;28;19939;-75
2022/07/22 02:18:15;;;;;;;;;;;;;;;30.53;43.42;98763.03;2098140;28;19934;-75
2022/07/22 02:19:16;;;;;;;;;;;;;;;30.51;43.57;98774.28;2096025;28;19985;-75
2022/07/22 02:20:17;;;;;;;;;;;;;;;30.51;43.29;98763.31;2095979;28;19936;-74
2022/07/22 02:21:20;;;;;;;;;;;;;;;30.51;43.63;98763.31;2091740;28;19928;-76
2022/07/22 02:22:22;;;;;;;;;;;;;;;30.52;43.33;98767.69;2096307;28;20213;-75
2022/07/22 02:23:22;;;;;;;;;;;;;;;30.53;43.49;98768.50;2096893;28;20176;-75
2022/07/22 02:24:24;;;;;;;;;;;;;;;30.52;43.14;98764.94;2095696;28;19928;-74
2022/07/22 02:25:24;;;;;;;;;;;;;;;30.53;43.25;98760.28;2096350;28;19969;-75
2022/07/22 02:26:26;;;;;;;;;;;;;;;30.53;43.71;98765.75;2093573;28;19955;-75
2022/07/22 02:27:27;;;;;;;;;;;;;;;30.54;43.70;98765.50;2093328;28;19955;-74
2022/07/22 02:28:28;;;;;;;;;;;;;;;30.53;43.69;98760.28;2096261;28;19928;-74
2022/07/22 02:29:29;;;;;;;;;;;;;;;30.52;43.50;98762.22;2093426;28;19932;-75
2022/07/22 02:30:30;;;;;;;;;;;;;;;30.51;43.34;98763.31;2096326;28;20266;-73
2022/07/22 02:31:31;;;;;;;;;;;;;;;30.52;43.58;98767.69;2094131;28;20003;-75
2022/07/22 02:32:33;;;;;;;;;;;;;;;30.51;43.69;98768.81;2095556;28;20440;-73
2022/07/22 02:33:33;;;;;;;;;;;;;;;30.51;43.74;98768.81;2092057;28;19935;-74
2022/07/22 02:34:35;;;;;;;;;;;;;;;30.50;43.66;98769.88;2094297;28;20360;-75
2022/07/22 02:35:35;;;;;;;;;;;;;;;30.48;43.72;98767.44;2089780;28;19946;-73
2022/07/22 02:36:38;;;;;;;;;;;;;;;30.48;44.22;98772.09;2093415;28;19976;-73
2022/07/22 02:37:39;;;;;;;;;;;;;;;30.47;43.57;98768.50;2093535;28;20502;-75
2022/07/22 02:38:41;;;;;;;;;;;;;;;30.47;43.72;98762.22;2095260;28;19932;-75
2022/07/22 02:39:42;;;;;;;;;;;;;;;30.47;43.87;98768.50;2094009;28;19927;-73
2022/07/22 02:40:43;;;;;;;;;;;;;;;30.47;43.88;98768.50;2095003;28;21213;-72
2022/07/22 02:41:44;;;;;;;;;;;;;;;30.47;43.78;98765.78;2096732;28;20343;-73
2022/07/22 02:42:45;;;;;;;;;;;;;;;30.47;43.71;98768.50;2095015;28;19932;-73
2022/07/22 02:43:46;;;;;;;;;;;;;;;30.49;43.73;98766.31;2092739;28;20219;-75
2022/07/22 02:44:47;;;;;;;;;;;;;;;30.47;43.43;98760.31;2095742;28;19927;-74
2022/07/22 02:45:48;;;;;;;;;;;;;;;30.50;43.61;98764.41;2090411;28;20405;-75
2022/07/22 02:46:49;;;;;;;;;;;;;;;30.50;43.61;98765.22;2095297;28;19952;-75
2022/07/22 02:47:51;;;;;;;;;;;;;;;30.50;43.01;98767.13;2093658;28;20475;-76
2022/07/22 02:48:53;;;;;;;;;;;;;;;30.49;43.43;98763.59;2094923;28;19951;-74
2022/07/22 02:49:53;;;;;;;;;;;;;;;30.49;43.20;98765.50;2092930;28;19928;-74
2022/07/22 02:50:55;;;;;;;;;;;;;;;30.49;43.34;98760.03;2090362;28;20078;-73
2022/07/22 02:51:57;;;;;;;;;;;;;;;30.49;43.68;98760.84;2090534;28;20382;-76
2022/07/22 02:52:58;;;;;;;;;;;;;;;30.48;43.53;98764.69;2094213;28;20315;-73
2022/07/22 02:53:59;;;;;;;;;;;;;;;30.48;43.46;98759.22;2094381;28;19928;-75
2022/07/22 02:55:00;;;;;;;;;;;;;;;30.47;43.35;98760.31;2094534;28;20029;-75
2022/07/22 02:56:01;;;;;;;;;;;;;;;30.48;43.01;98761.97;2093986;28;20023;-75
2022/07/22 02:57:02;;;;;;;;;;;;;;;30.48;42.86;98761.97;2093435;28;20605;-75
2022/07/22 02:58:05;;;;;;;;;;;;;;;30.48;43.08;98764.69;2093954;28;19931;-75
2022/07/22 02:59:06;;;;;;;;;;;;;;;30.48;43.29;98755.69;2092973;28;19967;-73
2022/07/22 03:00:08;;;;;;;;;;;;;;;30.47;43.08;98756.75;2093023;28;20221;-75
2022/07/22 03:01:09;;;;;;;;;;;;;;;30.48;43.53;98763.88;2093055;28;19938;-73
2022/07/22 03:02:10;;;;;;;;;;;;;;;30.48;43.17;98752.94;2095917;28;20010;-73
2022/07/22 03:03:12;;;;;;;;;;;;;;;30.48;43.33;98758.41;2094900;28;20243;-73
2022/07/22 03:04:12;;;;;;;;;;;;;;;30.46;43.42;98755.94;2097446;28;20306;-74
2022/07/22 03:05:14;;;;;;;;;;;;;;;30.47;43.09;98759.50;2094150;28;19977;-76
2022/07/22 03:06:14;;;;;;;;;;;;;;;30.47;43.09;98760.31;2092448;28;20135;-75
2022/07/22 03:07:17;;;;;;;;;;;;;;;30.46;43.23;98764.16;2089622;28;20159;-75
2022/07/22 03:08:18;;;;;;;;;;;;;;;30.45;44.45;98762.53;2091069;28;19928;-74
2022/07/22 03:09:20;;;;;;;;;;;;;;;30.41;45.51;98769.63;2093892;28;20035;-75
2022/07/22 03:10:20;;;;;;;;;;;;;;;30.37;45.26;98756.78;2092732;28;19939;-74
2022/07/22 03:11:22;;;;;;;;;;;;;;;30.27;45.76;98757.63;2095314;28;20613;-74
2022/07/22 03:12:22;;;;;;;;;;;;;;;30.28;46.35;98759.28;2097707;28;19935;-75
2022/07/22 03:13:24;;;;;;;;;;;;;;;30.27;47.09;98757.63;2096115;28;19928;-74
2022/07/22 03:14:24;;;;;;;;;;;;;;;30.28;47.53;98759.28;2096185;28;19928;-74
2022/07/22 03:15:26;;;;;;;;;;;;;;;30.25;47.90;98759.84;2096134;28;20039;-74
2022/07/22 03:16:27;;;;;;;;;;;;;;;30.24;46.95;98758.19;2096657;28;20310;-76
2022/07/22 03:17:28;;;;;;;;;;;;;;;30.22;47.19;98754.91;2097245;28;19934;-75
2022/07/22 03:18:29;;;;;;;;;;;;;;;30.28;46.58;98759.28;2097976;28;19928;-75
2022/07/22 03:19:30;;;;;;;;;;;;;;;30.25;48.15;98759.84;2096786;28;20086;-75
2022/07/22 03:20:31;;;;;;;;;;;;;;;30.18;48.38;98760.09;2094976;28;20278;-75
2022/07/22 03:21:32;;;;;;;;;;;;;;;30.15;47.88;98759.84;2097558;28;20015;-74
2022/07/22 03:22:34;;;;;;;;;;;;;;;30.15;49.25;98759.84;2093433;28;19935;-75
2022/07/22 03:23:36;;;;;;;;;;;;;;;30.06;49.40;98771.34;2093638;28;20026;-75
2022/07/22 03:24:36;;;;;;;;;;;;;;;30.05;49.88;98766.94;2097232;28;20400;-75
2022/07/22 03:25:38;;;;;;;;;;;;;;;29.91;50.84;98760.41;2096776;28;19928;-75
2022/07/22 03:26:39;;;;;;;;;;;;;;;29.90;50.76;98764.25;2095452;28;19928;-74
2022/07/22 03:27:40;;;;;;;;;;;;;;;29.93;51.45;98760.16;2098280;28;20014;-74
2022/07/22 03:28:41;;;;;;;;;;;;;;;29.89;51.13;98762.59;2097457;28;20578;-74
2022/07/22 03:29:42;;;;;;;;;;;;;;;29.96;51.26;98763.16;2097594;28;19932;-75
2022/07/22 03:30:43;;;;;;;;;;;;;;;29.97;50.67;98761.22;2097713;28;20038;-75
2022/07/22 03:31:45;;;;;;;;;;;;;;;29.96;50.39;98762.34;2093519;28;19924;-75
2022/07/22 03:32:46;;;;;;;;;;;;;;;29.99;50.76;98762.59;2096473;28;20098;-75
2022/07/22 03:33:48;;;;;;;;;;;;;;;29.93;50.93;98763.69;2098181;28;20026;-75
2022/07/22 03:34:48;;;;;;;;;;;;;;;29.91;50.91;98762.34;2097123;28;20250;-75
2022/07/22 03:35:50;;;;;;;;;;;;;;;29.97;49.06;98763.97;2096452;28;19928;-74
2022/07/22 03:36:51;;;;;;;;;;;;;;;29.99;50.73;98768.06;2096470;28;19931;-75
2022/07/22 03:37:53;;;;;;;;;;;;;;;29.96;50.54;98765.06;2097444;28;19978;-75
2022/07/22 03:38:55;;;;;;;;;;;;;;;29.98;52.15;98766.44;2096901;28;20031;-75
2022/07/22 03:39:55;;;;;;;;;;;;;;;29.95;51.04;98756.06;2096088;28;20305;-75
2022/07/22 03:40:57;;;;;;;;;;;;;;;29.81;51.76;98757.69;2092382;28;19997;-74
2022/07/22 03:41:58;;;;;;;;;;;;;;;29.87;52.05;98770.28;2097277;28;19928;-74
2022/07/22 03:43:01;;;;;;;;;;;;;;;29.88;52.14;98765.63;2096848;28;19931;-75
2022/07/22 03:44:02;;;;;;;;;;;;;;;29.80;51.04;98770.53;2097909;28;19932;-75
2022/07/22 03:45:03;;;;;;;;;;;;;;;29.84;51.54;98765.34;2098178;28;20039;-75
2022/07/22 03:46:04;;;;;;;;;;;;;;;29.90;51.46;98769.72;2092918;28;19935;-75
2022/07/22 03:47:06;;;;;;;;;;;;;;;29.89;51.79;98767.25;2094711;28;20007;-74
2022/07/22 03:48:06;;;;;;;;;;;;;;;29.86;51.73;98771.34;2095028;28;20008;-75
2022/07/22 03:49:08;;;;;;;;;;;;;;;29.84;52.41;98770.81;2097089;28;19927;-74
2022/07/22 03:50:08;;;;;;;;;;;;;;;29.84;51.71;98765.34;2097392;28;20249;-75
2022/07/22 03:51:10;;;;;;;;;;;;;;;29.87;51.24;98770.28;2094852;28;20383;-75
2022/07/22 03:52:10;;;;;;;;;;;;;;;29.88;52.93;98771.91;2098447;28;20292;-75
2022/07/22 03:53:13;;;;;;;;;;;;;;;29.93;50.31;98774.63;2096506;28;20296;-74
2022/07/22 03:54:14;;;;;;;;;;;;;;;29.98;50.40;98776.56;2099442;28;19932;-75
2022/07/22 03:55:15;;;;;;;;;;;;;;;30.02;49.98;98777.63;2097806;28;20381;-75
2022/07/22 03:56:16;;;;;;;;;;;;;;;30.02;49.95;98777.63;2099533;28;19928;-75
2022/07/22 03:57:18;;;;;;;;;;;;;;;30.06;49.28;98775.97;2099084;28;19932;-75
2022/07/22 03:58:18;;;;;;;;;;;;;;;30.05;49.82;98777.91;2099309;28;19928;-74
2022/07/22 03:59:20;;;;;;;;;;;;;;;30.09;48.88;98786.38;2095098;28;20486;-75
2022/07/22 04:00:20;;;;;;;;;;;;;;;30.10;48.63;98782.53;2098464;28;19932;-74
2022/07/22 04:01:22;;;;;;;;;;;;;;;30.10;48.54;98785.28;2096418;28;20332;-75
2022/07/22 04:02:22;;;;;;;;;;;;;;;30.14;48.19;98782.81;2094204;28;19934;-75
2022/07/22 04:03:24;;;;;;;;;;;;;;;30.19;48.83;98782.81;2094317;28;20287;-74
2022/07/22 04:04:27;;;;;;;;;;;;;;;30.16;48.54;98783.34;2099003;28;19928;-75
2022/07/22 04:05:30;;;;;;;;;;;;;;;30.09;49.72;98786.38;2097835;28;19932;-74
2022/07/22 04:06:31;;;;;;;;;;;;;;;30.06;49.99;98790.50;2095531;28;20383;-74
2022/07/22 04:07:32;;;;;;;;;;;;;;;30.06;50.03;98787.75;2097309;28;20034;-75
2022/07/22 04:08:34;;;;;;;;;;;;;;;30.03;50.83;98784.72;2098009;28;20372;-75
2022/07/22 04:09:36;;;;;;;;;;;;;;;30.03;50.68;98785.56;2097834;28;20178;-74
2022/07/22 04:10:36;;;;;;;;;;;;;;;30.08;49.32;98783.91;2097206;28;19932;-75
2022/07/22 04:11:38;;;;;;;;;;;;;;;29.98;50.21;98785.56;2098113;28;19934;-75
2022/07/22 04:12:39;;;;;;;;;;;;;;;30.03;50.91;98790.19;2099385;28;19932;-74
2022/07/22 04:13:41;;;;;;;;;;;;;;;29.99;50.64;98784.47;2097822;28;20053;-74
2022/07/22 04:14:42;;;;;;;;;;;;;;;29.98;50.89;98793.78;2096799;28;19951;-74
2022/07/22 04:15:43;;;;;;;;;;;;;;;29.93;50.93;98788.31;2095168;28;20407;-74
2022/07/22 04:16:45;;;;;;;;;;;;;;;29.96;50.98;98784.22;2095302;28;19935;-75
2022/07/22 04:17:45;;;;;;;;;;;;;;;29.96;51.34;98787.75;2095200;28;19934;-74
2022/07/22 04:18:47;;;;;;;;;;;;;;;29.99;48.93;98787.22;2098457;28;20569;-75
2022/07/22 04:19:47;;;;;;;;;;;;;;;29.94;50.11;98783.66;2097484;28;20049;-74
2022/07/22 04:20:49;;;;;;;;;;;;;;;29.93;51.18;98787.50;2096179;28;19928;-75
2022/07/22 04:21:49;;;;;;;;;;;;;;;29.94;50.81;98789.94;2098225;28;19928;-75
2022/07/22 04:22:51;;;;;;;;;;;;;;;29.96;50.27;98795.16;2093229;28;19949;-74
2022/07/22 04:23:53;;;;;;;;;;;;;;;29.98;49.87;98793.78;2099248;28;19959;-75
2022/07/22 04:24:55;;;;;;;;;;;;;;;29.92;50.03;98789.41;2097195;28;19978;-75
2022/07/22 04:25:55;;;;;;;;;;;;;;;29.93;51.65;98791.03;2097514;28;20195;-74
2022/07/22 04:26:57;;;;;;;;;;;;;;;29.97;51.62;98792.13;2098681;28;20233;-74
2022/07/22 04:27:57;;;;;;;;;;;;;;;29.96;49.43;98789.69;2099306;28;20009;-75
2022/07/22 04:28:59;;;;;;;;;;;;;;;29.93;50.67;98801.16;2098195;28;19936;-75
2022/07/22 04:29:59;;;;;;;;;;;;;;;29.92;50.50;98794.03;2098641;28;20263;-75
2022/07/22 04:31:01;;;;;;;;;;;;;;;29.91;50.48;98793.22;2097658;28;20024;-75
2022/07/22 04:32:01;;;;;;;;;;;;;;;29.93;49.63;98785.56;2099053;28;19928;-75
2022/07/22 04:33:03;;;;;;;;;;;;;;;29.93;50.34;98796.50;2098510;28;20300;-75
2022/07/22 04:34:03;;;;;;;;;;;;;;;29.92;51.13;98791.31;2099441;28;20170;-74
2022/07/22 04:35:05;;;;;;;;;;;;;;;29.90;51.78;98793.53;2096709;28;19950;-75
2022/07/22 04:36:06;;;;;;;;;;;;;;;29.94;51.07;98792.69;2097661;28;19935;-76
2022/07/22 04:37:08;;;;;;;;;;;;;;;29.94;50.06;98798.16;2095897;28;20047;-75
2022/07/22 04:38:08;;;;;;;;;;;;;;;29.96;51.35;98795.16;2098109;28;20141;-75
2022/07/22 04:39:11;;;;;;;;;;;;;;;29.98;51.37;98799.25;2095573;28;20261;-74
2022/07/22 04:40:12;;;;;;;;;;;;;;;29.98;49.95;98792.97;2098708;28;19936;-75
2022/07/22 04:41:13;;;;;;;;;;;;;;;29.98;50.19;98799.25;2097947;28;19932;-74
2022/07/22 04:42:14;;;;;;;;;;;;;;;29.95;50.63;98794.34;2095766;28;20016;-74
2022/07/22 04:43:15;;;;;;;;;;;;;;;29.99;51.28;98789.94;2092682;28;19932;-75
2022/07/22 04:44:16;;;;;;;;;;;;;;;29.99;50.86;98789.94;2097779;28;19924;-74
2022/07/22 04:45:17;;;;;;;;;;;;;;;30.00;51.09;98790.75;2098286;28;20251;-75
2022/07/22 04:46:18;;;;;;;;;;;;;;;30.01;51.72;98793.22;2098174;28;19939;-75
2022/07/22 04:47:20;;;;;;;;;;;;;;;29.96;50.16;98790.50;2098995;28;20401;-75
2022/07/22 04:48:20;;;;;;;;;;;;;;;30.01;51.44;98792.41;2097011;28;19927;-75
2022/07/22 04:49:22;;;;;;;;;;;;;;;29.97;51.58;98794.03;2097209;28;20330;-75
2022/07/22 04:50:22;;;;;;;;;;;;;;;29.97;51.40;98794.03;2096753;28;20148;-75
2022/07/22 04:51:24;;;;;;;;;;;;;;;29.98;51.97;98788.31;2094506;28;19978;-74
2022/07/22 04:52:24;;;;;;;;;;;;;;;29.98;51.54;98793.78;2095176;28;20627;-75
2022/07/22 04:53:26;;;;;;;;;;;;;;;29.96;51.86;98790.50;2092125;28;19932;-75
2022/07/22 04:54:30;;;;;;;;;;;;;;;29.96;52.18;98795.97;2095568;28;19955;-74
2022/07/22 04:55:32;;;;;;;;;;;;;;;29.96;52.30;98797.88;2095066;28;19924;-75
2022/07/22 04:56:32;;;;;;;;;;;;;;;29.94;51.81;98792.69;2096073;28;19927;-75
2022/07/22 04:57:34;;;;;;;;;;;;;;;29.94;52.47;98795.41;2095427;28;19967;-74
2022/07/22 04:58:34;;;;;;;;;;;;;;;29.94;52.10;98795.41;2097782;28;19924;-75
2022/07/22 04:59:36;;;;;;;;;;;;;;;29.94;52.27;98803.63;2091398;28;20793;-74
2022/07/22 05:00:37;;;;;;;;;;;;;;;29.90;52.29;98797.06;2097989;28;19932;-75
2022/07/22 05:01:38;;;;;;;;;;;;;;;29.91;52.27;98793.22;2095589;28;19928;-74
2022/07/22 05:02:40;;;;;;;;;;;;;;;29.95;50.85;98799.81;2094842;28;19928;-74
2022/07/22 05:03:40;;;;;;;;;;;;;;;29.92;52.12;98796.78;2094310;28;19928;-73
2022/07/22 05:04:42;;;;;;;;;;;;;;;29.93;51.95;98796.50;2090634;28;19932;-74
2022/07/22 05:05:42;;;;;;;;;;;;;;;29.91;52.28;98798.69;2091932;28;20411;-75
2022/07/22 05:06:44;;;;;;;;;;;;;;;29.93;52.19;98801.16;2094788;28;19927;-74
2022/07/22 05:07:45;;;;;;;;;;;;;;;29.91;52.22;98793.22;2096523;28;19928;-71
2022/07/22 05:08:46;;;;;;;;;;;;;;;29.88;52.35;98793.78;2097175;28;20627;-72
2022/07/22 05:09:49;;;;;;;;;;;;;;;29.94;52.17;98794.59;2097481;28;20499;-72
2022/07/22 05:10:49;;;;;;;;;;;;;;;29.95;52.24;98802.53;2094016;28;20037;-72
2022/07/22 05:11:51;;;;;;;;;;;;;;;29.95;51.88;98798.97;2096978;28;19928;-73
2022/07/22 05:12:52;;;;;;;;;;;;;;;29.98;51.46;98801.97;2096205;28;20066;-72
2022/07/22 05:13:53;;;;;;;;;;;;;;;29.95;50.92;98807.16;2095648;28;20443;-72
2022/07/22 05:14:54;;;;;;;;;;;;;;;29.95;51.76;98808.00;2095660;28;19928;-72
2022/07/22 05:15:55;;;;;;;;;;;;;;;29.93;52.62;98799.25;2096182;28;19927;-72
2022/07/22 05:16:57;;;;;;;;;;;;;;;29.94;52.02;98800.88;2093252;28;19928;-72
2022/07/22 05:17:58;;;;;;;;;;;;;;;29.88;52.32;98804.72;2095871;28;19950;-72
2022/07/22 05:18:59;;;;;;;;;;;;;;;29.86;52.74;98804.16;2090956;28;19954;-72